sensor_id;sensor_type;location;lat;lon;timestamp;temperature;humidity
19000;DHT22;9633;50.980;13.850;2023-06-22T00:01:10;18.10;99.90
19000;DHT22;9633;50.980;13.850;2023-06-22T00:02:43;18.10;99.90
19000;DHT22;9633;50.980;13.850;2023-06-22T00:04:17;17.90;99.90
19000;DHT22;9633;50.980;13.850;2023-06-22T00:05:50;18.30;99.90
19000;DHT22;9633;50.980;13.850;2023-06-22T00:07:24;18.30;99.90
19000;DHT22;9633;50.980;13.850;2023-06-22T00:08:57;18.00;99.90
19000;DHT22;9633;50.980;13.850;2023-06-22T00:10:30;18.20;99.90
19000;DHT22;9633;50.980;13.850;2023-06-22T00:12:04;17.20;99.90
19000;DHT22;9633;50.980;13.850;2023-06-22T00:13:37;18.90;99.90
19000;DHT22;9633;50.980;13.850;2023-06-22T00:15:11;16.00;99.90
19000;DHT22;9633;50.980;13.850;2023-06-22T00:16:44;18.00;99.90
19000;DHT22;9633;50.980;13.850;2023-06-22T00:18:20;17.90;99.90
19000;DHT22;9633;50.980;13.850;2023-06-22T00:19:52;18.00;99.90
19000;DHT22;9633;50.980;13.850;2023-06-22T00:21:27;18.10;99.90
19000;DHT22;9633;50.980;13.850;2023-06-22T00:23:00;18.00;99.90
19000;DHT22;9633;50.980;13.850;2023-06-22T00:24:33;17.90;99.90
19000;DHT22;9633;50.980;13.850;2023-06-22T00:26:06;17.80;99.90
19000;DHT22;9633;50.980;13.850;2023-06-22T00:27:39;17.70;99.90
19000;DHT22;9633;50.980;13.850;2023-06-22T00:29:12;17.70;99.90
19000;DHT22;9633;50.980;13.850;2023-06-22T00:30:45;17.70;99.90
19000;DHT22;9633;50.980;13.850;2023-06-22T00:32:19;17.70;99.90
19000;DHT22;9633;50.980;13.850;2023-06-22T00:33:52;17.60;99.90
19000;DHT22;9633;50.980;13.850;2023-06-22T00:35:26;17.60;99.90
19000;DHT22;9633;50.980;13.850;2023-06-22T00:37:00;17.50;99.90
19000;DHT22;9633;50.980;13.850;2023-06-22T00:38:34;17.70;99.90
19000;DHT22;9633;50.980;13.850;2023-06-22T00:40:10;17.80;99.90
19000;DHT22;9633;50.980;13.850;2023-06-22T00:41:45;17.80;99.90
19000;DHT22;9633;50.980;13.850;2023-06-22T00:43:18;17.70;99.90
19000;DHT22;9633;50.980;13.850;2023-06-22T00:44:51;17.70;99.90
19000;DHT22;9633;50.980;13.850;2023-06-22T00:46:24;17.70;99.90
19000;DHT22;9633;50.980;13.850;2023-06-22T00:47:59;17.60;99.90
19000;DHT22;9633;50.980;13.850;2023-06-22T00:49:32;17.60;99.90
19000;DHT22;9633;50.980;13.850;2023-06-22T00:51:05;17.70;99.90
19000;DHT22;9633;50.980;13.850;2023-06-22T00:52:39;17.60;99.90
19000;DHT22;9633;50.980;13.850;2023-06-22T00:54:15;17.60;99.90
19000;DHT22;9633;50.980;13.850;2023-06-22T00:55:48;17.60;99.90
19000;DHT22;9633;50.980;13.850;2023-06-22T00:57:24;17.70;99.90
19000;DHT22;9633;50.980;13.850;2023-06-22T00:59:00;17.50;99.90
19000;DHT22;9633;50.980;13.850;2023-06-22T01:00:35;17.40;99.90
19000;DHT22;9633;50.980;13.850;2023-06-22T01:02:09;17.40;99.90
19000;DHT22;9633;50.980;13.850;2023-06-22T01:03:42;17.40;99.90
19000;DHT22;9633;50.980;13.850;2023-06-22T01:05:19;17.40;99.90
19000;DHT22;9633;50.980;13.850;2023-06-22T01:06:57;17.50;99.90
19000;DHT22;9633;50.980;13.850;2023-06-22T01:08:45;17.60;99.90
19000;DHT22;9633;50.980;13.850;2023-06-22T01:10:27;17.70;99.90
19000;DHT22;9633;50.980;13.850;2023-06-22T01:12:02;17.70;99.90
19000;DHT22;9633;50.980;13.850;2023-06-22T01:13:41;17.80;99.90
19000;DHT22;9633;50.980;13.850;2023-06-22T01:15:18;17.80;99.90
19000;DHT22;9633;50.980;13.850;2023-06-22T01:16:54;17.70;99.90
19000;DHT22;9633;50.980;13.850;2023-06-22T01:18:31;16.90;99.90
19000;DHT22;9633;50.980;13.850;2023-06-22T01:20:08;17.50;99.90
19000;DHT22;9633;50.980;13.850;2023-06-22T01:21:44;18.00;99.90
19000;DHT22;9633;50.980;13.850;2023-06-22T01:23:27;17.50;99.90
19000;DHT22;9633;50.980;13.850;2023-06-22T01:25:09;17.40;99.90
19000;DHT22;9633;50.980;13.850;2023-06-22T01:26:50;17.40;99.90
19000;DHT22;9633;50.980;13.850;2023-06-22T01:28:44;17.30;99.90
19000;DHT22;9633;50.980;13.850;2023-06-22T01:30:19;17.30;99.90
19000;DHT22;9633;50.980;13.850;2023-06-22T01:31:54;17.20;99.90
19000;DHT22;9633;50.980;13.850;2023-06-22T01:33:32;17.20;99.90
19000;DHT22;9633;50.980;13.850;2023-06-22T01:35:07;17.10;99.90
19000;DHT22;9633;50.980;13.850;2023-06-22T01:36:41;17.20;99.90
19000;DHT22;9633;50.980;13.850;2023-06-22T01:38:16;17.30;99.90
19000;DHT22;9633;50.980;13.850;2023-06-22T01:39:48;17.00;99.90
19000;DHT22;9633;50.980;13.850;2023-06-22T01:41:25;17.10;99.90
19000;DHT22;9633;50.980;13.850;2023-06-22T01:43:00;17.10;99.90
19000;DHT22;9633;50.980;13.850;2023-06-22T01:44:35;17.10;99.90
19000;DHT22;9633;50.980;13.850;2023-06-22T01:46:10;17.10;99.90
19000;DHT22;9633;50.980;13.850;2023-06-22T01:47:44;17.20;99.90
19000;DHT22;9633;50.980;13.850;2023-06-22T01:49:17;17.30;99.90
19000;DHT22;9633;50.980;13.850;2023-06-22T01:50:51;17.40;99.90
19000;DHT22;9633;50.980;13.850;2023-06-22T01:52:23;17.40;99.90
19000;DHT22;9633;50.980;13.850;2023-06-22T01:53:56;17.40;99.90
19000;DHT22;9633;50.980;13.850;2023-06-22T01:55:29;17.40;99.90
19000;DHT22;9633;50.980;13.850;2023-06-22T01:57:03;17.30;99.90
19000;DHT22;9633;50.980;13.850;2023-06-22T01:58:42;17.20;99.90
19000;DHT22;9633;50.980;13.850;2023-06-22T02:00:21;17.20;99.90
19000;DHT22;9633;50.980;13.850;2023-06-22T02:02:05;17.30;99.90
19000;DHT22;9633;50.980;13.850;2023-06-22T02:03:42;17.20;99.90
19000;DHT22;9633;50.980;13.850;2023-06-22T02:05:17;17.20;99.90
19000;DHT22;9633;50.980;13.850;2023-06-22T02:06:55;17.20;99.90
19000;DHT22;9633;50.980;13.850;2023-06-22T02:08:32;17.10;99.90
19000;DHT22;9633;50.980;13.850;2023-06-22T02:10:08;17.00;99.90
19000;DHT22;9633;50.980;13.850;2023-06-22T02:11:46;17.10;99.90
19000;DHT22;9633;50.980;13.850;2023-06-22T02:13:20;16.90;99.90
19000;DHT22;9633;50.980;13.850;2023-06-22T02:14:52;16.90;99.90
19000;DHT22;9633;50.980;13.850;2023-06-22T02:16:28;16.80;99.90
19000;DHT22;9633;50.980;13.850;2023-06-22T02:18:02;16.80;99.90
19000;DHT22;9633;50.980;13.850;2023-06-22T02:19:36;16.80;99.90
19000;DHT22;9633;50.980;13.850;2023-06-22T02:21:09;16.70;99.90
19000;DHT22;9633;50.980;13.850;2023-06-22T02:22:42;16.70;99.90
19000;DHT22;9633;50.980;13.850;2023-06-22T02:24:15;16.70;99.90
19000;DHT22;9633;50.980;13.850;2023-06-22T02:25:48;16.70;99.90
19000;DHT22;9633;50.980;13.850;2023-06-22T02:27:22;16.80;99.90
19000;DHT22;9633;50.980;13.850;2023-06-22T02:28:55;16.90;99.90
19000;DHT22;9633;50.980;13.850;2023-06-22T02:30:28;17.00;99.90
19000;DHT22;9633;50.980;13.850;2023-06-22T02:32:03;17.00;99.90
19000;DHT22;9633;50.980;13.850;2023-06-22T02:33:37;17.00;99.90
19000;DHT22;9633;50.980;13.850;2023-06-22T02:35:10;16.90;99.90
19000;DHT22;9633;50.980;13.850;2023-06-22T02:36:44;16.80;99.90
19000;DHT22;9633;50.980;13.850;2023-06-22T02:38:22;16.70;99.90
19000;DHT22;9633;50.980;13.850;2023-06-22T02:39:56;16.60;99.90
19000;DHT22;9633;50.980;13.850;2023-06-22T02:41:29;16.50;99.90
19000;DHT22;9633;50.980;13.850;2023-06-22T02:43:03;16.60;99.90
19000;DHT22;9633;50.980;13.850;2023-06-22T02:44:36;16.70;99.90
19000;DHT22;9633;50.980;13.850;2023-06-22T02:46:09;16.70;99.90
19000;DHT22;9633;50.980;13.850;2023-06-22T02:47:44;16.70;99.90
19000;DHT22;9633;50.980;13.850;2023-06-22T02:49:19;16.60;99.90
19000;DHT22;9633;50.980;13.850;2023-06-22T02:50:52;16.60;99.90
19000;DHT22;9633;50.980;13.850;2023-06-22T02:52:25;16.70;99.90
19000;DHT22;9633;50.980;13.850;2023-06-22T02:53:59;16.60;99.90
19000;DHT22;9633;50.980;13.850;2023-06-22T02:55:33;16.50;99.90
19000;DHT22;9633;50.980;13.850;2023-06-22T02:57:06;16.50;99.90
19000;DHT22;9633;50.980;13.850;2023-06-22T02:58:47;16.40;99.90
19000;DHT22;9633;50.980;13.850;2023-06-22T03:00:20;16.50;99.90
19000;DHT22;9633;50.980;13.850;2023-06-22T03:01:54;16.40;99.90
19000;DHT22;9633;50.980;13.850;2023-06-22T03:03:32;16.50;99.90
19000;DHT22;9633;50.980;13.850;2023-06-22T03:05:06;16.50;99.90
19000;DHT22;9633;50.980;13.850;2023-06-22T03:06:41;16.50;99.90
19000;DHT22;9633;50.980;13.850;2023-06-22T03:08:14;16.50;99.90
19000;DHT22;9633;50.980;13.850;2023-06-22T03:09:47;16.60;99.90
19000;DHT22;9633;50.980;13.850;2023-06-22T03:11:20;16.60;99.90
19000;DHT22;9633;50.980;13.850;2023-06-22T03:12:54;16.50;99.90
19000;DHT22;9633;50.980;13.850;2023-06-22T03:14:28;16.60;99.90
19000;DHT22;9633;50.980;13.850;2023-06-22T03:16:01;16.60;99.90
19000;DHT22;9633;50.980;13.850;2023-06-22T03:17:34;16.60;99.90
19000;DHT22;9633;50.980;13.850;2023-06-22T03:19:09;16.70;99.90
19000;DHT22;9633;50.980;13.850;2023-06-22T03:20:43;16.80;99.90
19000;DHT22;9633;50.980;13.850;2023-06-22T03:22:16;16.90;99.90
19000;DHT22;9633;50.980;13.850;2023-06-22T03:23:49;16.90;99.90
19000;DHT22;9633;50.980;13.850;2023-06-22T03:25:22;16.90;99.90
19000;DHT22;9633;50.980;13.850;2023-06-22T03:26:56;16.90;99.90
19000;DHT22;9633;50.980;13.850;2023-06-22T03:28:29;16.90;99.90
19000;DHT22;9633;50.980;13.850;2023-06-22T03:30:03;17.00;99.90
19000;DHT22;9633;50.980;13.850;2023-06-22T03:31:37;17.00;99.90
19000;DHT22;9633;50.980;13.850;2023-06-22T03:33:10;17.00;99.90
19000;DHT22;9633;50.980;13.850;2023-06-22T03:34:45;17.10;99.90
19000;DHT22;9633;50.980;13.850;2023-06-22T03:36:19;17.10;99.90
19000;DHT22;9633;50.980;13.850;2023-06-22T03:37:52;17.20;99.90
19000;DHT22;9633;50.980;13.850;2023-06-22T03:39:25;17.20;99.90
19000;DHT22;9633;50.980;13.850;2023-06-22T03:40:59;17.30;99.90
19000;DHT22;9633;50.980;13.850;2023-06-22T03:42:34;17.40;99.90
19000;DHT22;9633;50.980;13.850;2023-06-22T03:44:07;17.60;99.90
19000;DHT22;9633;50.980;13.850;2023-06-22T03:45:44;17.60;99.90
19000;DHT22;9633;50.980;13.850;2023-06-22T03:47:18;17.70;99.90
19000;DHT22;9633;50.980;13.850;2023-06-22T03:48:51;17.80;99.90
19000;DHT22;9633;50.980;13.850;2023-06-22T03:50:26;17.80;99.90
19000;DHT22;9633;50.980;13.850;2023-06-22T03:52:00;17.90;99.90
19000;DHT22;9633;50.980;13.850;2023-06-22T03:53:33;17.90;99.90
19000;DHT22;9633;50.980;13.850;2023-06-22T03:55:07;18.00;99.90
19000;DHT22;9633;50.980;13.850;2023-06-22T03:56:40;18.10;99.90
19000;DHT22;9633;50.980;13.850;2023-06-22T03:58:12;18.10;99.90
19000;DHT22;9633;50.980;13.850;2023-06-22T03:59:45;18.10;99.90
19000;DHT22;9633;50.980;13.850;2023-06-22T04:01:19;18.10;99.90
19000;DHT22;9633;50.980;13.850;2023-06-22T04:02:52;18.20;99.90
19000;DHT22;9633;50.980;13.850;2023-06-22T04:04:25;18.30;99.90
19000;DHT22;9633;50.980;13.850;2023-06-22T04:06:00;18.40;99.90
19000;DHT22;9633;50.980;13.850;2023-06-22T04:07:34;18.50;99.90
19000;DHT22;9633;50.980;13.850;2023-06-22T04:09:09;18.60;99.90
19000;DHT22;9633;50.980;13.850;2023-06-22T04:10:42;18.60;99.90
19000;DHT22;9633;50.980;13.850;2023-06-22T04:12:15;18.60;99.90
19000;DHT22;9633;50.980;13.850;2023-06-22T04:13:48;18.70;99.90
19000;DHT22;9633;50.980;13.850;2023-06-22T04:15:23;18.70;99.90
19000;DHT22;9633;50.980;13.850;2023-06-22T04:16:57;18.80;99.90
19000;DHT22;9633;50.980;13.850;2023-06-22T04:18:30;18.90;99.90
19000;DHT22;9633;50.980;13.850;2023-06-22T04:20:04;18.90;99.90
19000;DHT22;9633;50.980;13.850;2023-06-22T04:21:39;19.00;99.90
19000;DHT22;9633;50.980;13.850;2023-06-22T04:23:13;19.00;99.90
19000;DHT22;9633;50.980;13.850;2023-06-22T04:24:46;18.90;99.90
19000;DHT22;9633;50.980;13.850;2023-06-22T04:26:20;19.00;99.90
19000;DHT22;9633;50.980;13.850;2023-06-22T04:27:53;19.00;99.90
19000;DHT22;9633;50.980;13.850;2023-06-22T04:29:27;19.10;99.90
19000;DHT22;9633;50.980;13.850;2023-06-22T04:31:02;19.20;99.90
19000;DHT22;9633;50.980;13.850;2023-06-22T04:32:35;19.50;99.90
19000;DHT22;9633;50.980;13.850;2023-06-22T04:34:09;19.60;99.90
19000;DHT22;9633;50.980;13.850;2023-06-22T04:35:45;19.80;99.90
19000;DHT22;9633;50.980;13.850;2023-06-22T04:37:20;19.80;99.90
19000;DHT22;9633;50.980;13.850;2023-06-22T04:38:55;19.90;99.90
19000;DHT22;9633;50.980;13.850;2023-06-22T04:40:29;20.00;99.90
19000;DHT22;9633;50.980;13.850;2023-06-22T04:42:03;20.10;99.90
19000;DHT22;9633;50.980;13.850;2023-06-22T04:43:36;20.30;99.90
19000;DHT22;9633;50.980;13.850;2023-06-22T04:45:10;20.40;99.90
19000;DHT22;9633;50.980;13.850;2023-06-22T04:46:43;20.30;99.90
19000;DHT22;9633;50.980;13.850;2023-06-22T04:48:16;20.20;99.90
19000;DHT22;9633;50.980;13.850;2023-06-22T04:49:49;20.10;99.90
19000;DHT22;9633;50.980;13.850;2023-06-22T04:51:23;19.90;99.90
19000;DHT22;9633;50.980;13.850;2023-06-22T04:53:02;19.80;99.90
19000;DHT22;9633;50.980;13.850;2023-06-22T04:54:38;19.80;99.90
19000;DHT22;9633;50.980;13.850;2023-06-22T04:56:19;20.10;99.90
19000;DHT22;9633;50.980;13.850;2023-06-22T04:57:53;20.30;99.90
19000;DHT22;9633;50.980;13.850;2023-06-22T04:59:28;20.50;99.90
19000;DHT22;9633;50.980;13.850;2023-06-22T05:01:01;20.50;99.90
19000;DHT22;9633;50.980;13.850;2023-06-22T05:02:35;20.70;99.90
19000;DHT22;9633;50.980;13.850;2023-06-22T05:04:09;21.30;99.90
19000;DHT22;9633;50.980;13.850;2023-06-22T05:05:43;21.20;99.90
19000;DHT22;9633;50.980;13.850;2023-06-22T05:07:16;21.40;99.90
19000;DHT22;9633;50.980;13.850;2023-06-22T05:08:51;21.40;99.90
19000;DHT22;9633;50.980;13.850;2023-06-22T05:10:24;21.10;99.90
19000;DHT22;9633;50.980;13.850;2023-06-22T05:11:58;21.00;99.90
19000;DHT22;9633;50.980;13.850;2023-06-22T05:13:32;21.00;99.90
19000;DHT22;9633;50.980;13.850;2023-06-22T05:15:06;20.90;99.90
19000;DHT22;9633;50.980;13.850;2023-06-22T05:16:41;21.10;99.90
19000;DHT22;9633;50.980;13.850;2023-06-22T05:18:14;21.10;99.90
19000;DHT22;9633;50.980;13.850;2023-06-22T05:19:48;21.10;99.90
19000;DHT22;9633;50.980;13.850;2023-06-22T05:21:25;21.40;99.90
19000;DHT22;9633;50.980;13.850;2023-06-22T05:22:59;21.60;99.90
19000;DHT22;9633;50.980;13.850;2023-06-22T05:24:33;21.60;99.90
19000;DHT22;9633;50.980;13.850;2023-06-22T05:26:06;21.90;99.90
19000;DHT22;9633;50.980;13.850;2023-06-22T05:27:41;22.10;99.90
19000;DHT22;9633;50.980;13.850;2023-06-22T05:29:15;22.00;99.90
19000;DHT22;9633;50.980;13.850;2023-06-22T05:30:49;21.70;99.90
19000;DHT22;9633;50.980;13.850;2023-06-22T05:32:22;21.90;99.90
19000;DHT22;9633;50.980;13.850;2023-06-22T05:33:55;21.90;99.90
19000;DHT22;9633;50.980;13.850;2023-06-22T05:35:29;22.20;99.90
19000;DHT22;9633;50.980;13.850;2023-06-22T05:37:02;22.50;99.90
19000;DHT22;9633;50.980;13.850;2023-06-22T05:38:36;22.40;99.90
19000;DHT22;9633;50.980;13.850;2023-06-22T05:40:12;22.70;99.90
19000;DHT22;9633;50.980;13.850;2023-06-22T05:41:45;22.90;99.90
19000;DHT22;9633;50.980;13.850;2023-06-22T05:43:19;23.20;99.90
19000;DHT22;9633;50.980;13.850;2023-06-22T05:44:52;23.50;99.90
19000;DHT22;9633;50.980;13.850;2023-06-22T05:46:26;23.30;99.90
19000;DHT22;9633;50.980;13.850;2023-06-22T05:47:59;23.40;99.90
19000;DHT22;9633;50.980;13.850;2023-06-22T05:49:33;23.80;99.90
19000;DHT22;9633;50.980;13.850;2023-06-22T05:51:06;24.10;99.90
19000;DHT22;9633;50.980;13.850;2023-06-22T05:52:39;24.40;99.90
19000;DHT22;9633;50.980;13.850;2023-06-22T05:54:13;24.80;99.90
19000;DHT22;9633;50.980;13.850;2023-06-22T05:55:49;25.90;99.90
19000;DHT22;9633;50.980;13.850;2023-06-22T05:57:22;27.20;1.00
19000;DHT22;9633;50.980;13.850;2023-06-22T05:58:55;28.50;1.00
19000;DHT22;9633;50.980;13.850;2023-06-22T21:57:31;23.40;99.90
19000;DHT22;9633;50.980;13.850;2023-06-22T21:59:07;23.50;99.90
19000;DHT22;9633;50.980;13.850;2023-06-22T22:00:40;23.40;99.90
19000;DHT22;9633;50.980;13.850;2023-06-22T22:02:13;23.20;99.90
19000;DHT22;9633;50.980;13.850;2023-06-22T22:03:46;23.10;99.90
19000;DHT22;9633;50.980;13.850;2023-06-22T22:05:20;23.10;99.90
19000;DHT22;9633;50.980;13.850;2023-06-22T22:06:54;23.10;99.90
19000;DHT22;9633;50.980;13.850;2023-06-22T22:08:27;23.10;99.90
19000;DHT22;9633;50.980;13.850;2023-06-22T22:10:01;23.10;99.90
19000;DHT22;9633;50.980;13.850;2023-06-22T22:11:35;23.00;99.90
19000;DHT22;9633;50.980;13.850;2023-06-22T22:13:08;22.90;99.90
19000;DHT22;9633;50.980;13.850;2023-06-22T22:14:42;22.90;99.90
19000;DHT22;9633;50.980;13.850;2023-06-22T22:16:17;22.90;99.90
19000;DHT22;9633;50.980;13.850;2023-06-22T22:19:24;22.90;99.90
19000;DHT22;9633;50.980;13.850;2023-06-22T22:20:58;22.90;99.90
19000;DHT22;9633;50.980;13.850;2023-06-22T22:22:31;22.90;99.90
19000;DHT22;9633;50.980;13.850;2023-06-22T22:24:04;22.80;99.90
19000;DHT22;9633;50.980;13.850;2023-06-22T22:25:39;22.80;99.90
19000;DHT22;9633;50.980;13.850;2023-06-22T22:27:11;22.80;99.90
19000;DHT22;9633;50.980;13.850;2023-06-22T22:28:44;22.80;99.90
19000;DHT22;9633;50.980;13.850;2023-06-22T22:30:17;22.90;99.90
19000;DHT22;9633;50.980;13.850;2023-06-22T22:31:50;22.80;99.90
19000;DHT22;9633;50.980;13.850;2023-06-22T22:33:23;22.80;99.90
19000;DHT22;9633;50.980;13.850;2023-06-22T22:34:57;22.80;99.90
19000;DHT22;9633;50.980;13.850;2023-06-22T22:36:30;22.70;99.90
19000;DHT22;9633;50.980;13.850;2023-06-22T22:38:03;22.70;99.90
19000;DHT22;9633;50.980;13.850;2023-06-22T22:39:36;22.70;99.90
19000;DHT22;9633;50.980;13.850;2023-06-22T22:41:11;22.70;99.90
19000;DHT22;9633;50.980;13.850;2023-06-22T22:42:44;22.60;99.90
19000;DHT22;9633;50.980;13.850;2023-06-22T22:44:18;22.60;99.90
19000;DHT22;9633;50.980;13.850;2023-06-22T22:45:51;22.60;99.90
19000;DHT22;9633;50.980;13.850;2023-06-22T22:47:24;22.60;99.90
19000;DHT22;9633;50.980;13.850;2023-06-22T22:48:57;22.50;99.90
19000;DHT22;9633;50.980;13.850;2023-06-22T22:50:30;22.50;99.90
19000;DHT22;9633;50.980;13.850;2023-06-22T22:52:04;22.50;99.90
19000;DHT22;9633;50.980;13.850;2023-06-22T22:53:37;22.40;99.90
19000;DHT22;9633;50.980;13.850;2023-06-22T22:55:11;22.40;99.90
19000;DHT22;9633;50.980;13.850;2023-06-22T22:56:47;22.40;99.90
19000;DHT22;9633;50.980;13.850;2023-06-22T22:58:20;22.30;99.90
19000;DHT22;9633;50.980;13.850;2023-06-22T22:59:53;22.30;99.90
19000;DHT22;9633;50.980;13.850;2023-06-22T23:01:26;22.30;99.90
19000;DHT22;9633;50.980;13.850;2023-06-22T23:02:58;22.30;99.90
19000;DHT22;9633;50.980;13.850;2023-06-22T23:04:34;22.30;99.90
19000;DHT22;9633;50.980;13.850;2023-06-22T23:06:07;22.20;99.90
19000;DHT22;9633;50.980;13.850;2023-06-22T23:07:40;22.20;99.90
19000;DHT22;9633;50.980;13.850;2023-06-22T23:09:13;22.10;99.90
19000;DHT22;9633;50.980;13.850;2023-06-22T23:10:46;21.70;99.90
